KRDM

Roberts Field Airport

Redmond, Oregon, USA
KRDM 182320Z 1900/1924 18010KT 4SM -RASN BR BKN020 FM190900 18009KT P6SM VCSH SCT025 BKN050
Issued Valid From Valid To
Jan-18 @ 23:20 UTC
(3 hours ago)
Jan-19 @ 00:00 UTC
(3 hours ago)
Jan-20 @ 00:00 UTC
(in 21 hours)
Jan-19 @ 00:00 to Jan-19 @ 09:00
KRDM 182320Z 1900/1924 18010KT 4SM -RASN BR BKN020
Wind Visibility Clouds Conditions
180° at 10 knots 4 miles
  • Broken at 2,000' AGL
  • Light Rain
  • Light Snow
  • Mist
From Jan-19 @ 09:00 to Jan-20 @ 00:00
FM190900 18009KT P6SM VCSH SCT025 BKN050
Wind Visibility Clouds
180° at 9 knots Greater than 6 miles
  • Scattered at 2,500' AGL
  • Broken at 5,000' AGL
KRDM 182320Z 1900/1924 18010KT 4SM -RASN BR BKN020 FM190900 18009KT P6SM VCSH SCT025 BKN050
Issued Jan-18 @ 23:20 UTC
(3 hours ago)
Valid From Jan-19 @ 00:00 UTC
(3 hours ago)
Valid To Jan-20 @ 00:00 UTC
(in 21 hours)
Jan-19 @ 00:00 - Jan-19 @ 09:00
Wind Visibility
180° at 10 knots 4 miles
Clouds
  • Broken at 2,000' AGL
Conditions
  • Light Rain
  • Light Snow
  • Mist
From Jan-19 @ 09:00 - Jan-20 @ 00:00
Wind Visibility
180° at 9 knots Greater than 6 miles
Clouds
  • Scattered at 2,500' AGL
  • Broken at 5,000' AGL